Marco Polo — BR2031 — position and weather

sailwx.info

Track history (hours):
 
Tides and Currents Weather Stations Pressure Air Temp Water Temp Dewpoint Dewpoint Depression Visibility Wind Speed Wind Dir Waves Ship Positions

Marco Polo

Last reported at 2016-Jun-25 09:31 UTC. Time now 2016-Jun-25 12:31 UTC.
Position N 24°26' E 118°17'.

Length 32 m.

MMSI: 416000256.

Date/timePositionNaut miles runAvg speedWind from/ knotsBaromVisibWave heightAir tempDewpointWater temp
2016-Jun-25 09:31N 24°26' E 118°17'8 8.2
2016-Jun-25 08:29N 24°32' E 118°11'9 9.6
2016-Jun-25 07:33N 24°25' E 118°17'0 0.0
2016-Jun-25 06:30N 24°25' E 118°17'0 0.1
2016-Jun-25 05:33N 24°25' E 118°17'0 0.0
2016-Jun-25 04:30N 24°25' E 118°17'8 8.7
2016-Jun-25 03:33N 24°32' E 118°12'1 0.6
2016-Jun-25 02:33N 24°32' E 118°13'8 7.8
2016-Jun-25 01:33N 24°25' E 118°17'0 0.1
2016-Jun-25 00:31N 24°25' E 118°17'0 0.0
2016-Jun-24 23:33N 24°25' E 118°17'0 0.0
2016-Jun-24 22:33N 24°25' E 118°17'0 0.0
2016-Jun-24 21:33N 24°25' E 118°17'0 0.0
2016-Jun-24 20:34N 24°25' E 118°17'0 0.0
2016-Jun-24 19:33N 24°25' E 118°17'0 0.0
2016-Jun-24 18:33N 24°25' E 118°17'0 0.0
2016-Jun-24 17:32N 24°25' E 118°17'0 0.0
2016-Jun-24 16:33N 24°25' E 118°17'0 0.0
2016-Jun-24 15:33N 24°25' E 118°17'0 0.0
2016-Jun-24 10:30N 24°25' E 118°17'0 0.0
2016-Jun-24 09:33N 24°25' E 118°17'0 0.0
2016-Jun-24 08:33N 24°25' E 118°17'0 0.0
2016-Jun-24 07:33N 24°25' E 118°17'0 0.0
2016-Jun-24 04:33N 24°25' E 118°17'0 0.1
2016-Jun-24 03:32N 24°25' E 118°17'0 0.0
2016-Jun-24 02:33N 24°25' E 118°17'2 2.1
2016-Jun-24 01:33N 24°27' E 118°17'6 6.0
2016-Jun-24 00:33N 24°32' E 118°13'8 7.7
2016-Jun-23 23:33N 24°25' E 118°17'0 0.0
2016-Jun-23 22:33N 24°25' E 118°17'0 0.0
2016-Jun-23 21:32N 24°25' E 118°17'0 0.0
2016-Jun-23 20:33N 24°25' E 118°17'0 0.0
2016-Jun-23 19:31N 24°25' E 118°17'0 0.0
2016-Jun-23 18:33N 24°25' E 118°17'0 0.0
2016-Jun-23 17:33N 24°25' E 118°17'0 0.0
2016-Jun-23 16:33N 24°25' E 118°17'0 0.0
2016-Jun-23 15:33N 24°25' E 118°17'9 1.8
2016-Jun-23 10:33N 24°32' E 118°11'9 9.0
2016-Jun-23 09:33N 24°25' E 118°17'0 0.0
2016-Jun-23 08:34N 24°25' E 118°17'7 7.2
2016-Jun-23 07:33N 24°31' E 118°13'7 3.6
2016-Jun-23 05:33N 24°25' E 118°17'0 0.5
2016-Jun-23 04:32N 24°25' E 118°17'0 0.0
2016-Jun-23 03:15N 24°25' E 118°17'0 0.0
2016-Jun-23 02:27N 24°25' E 118°17'0 0.0
2016-Jun-23 01:32N 24°25' E 118°17'0 0.0
2016-Jun-22 23:20N 24°25' E 118°17'0 0.0
2016-Jun-22 22:33N 24°25' E 118°17'0 0.0
2016-Jun-22 21:28N 24°25' E 118°17'0 0.0
2016-Jun-22 20:33N 24°25' E 118°17'0 0.0
2016-Jun-22 19:33N 24°25' E 118°17'0 0.0
2016-Jun-22 18:32N 24°25' E 118°17'0 0.0
2016-Jun-22 17:33N 24°25' E 118°17'0 0.0
2016-Jun-22 16:33N 24°25' E 118°17'0 0.0
2016-Jun-22 15:33N 24°25' E 118°17'0 0.0
2016-Jun-22 08:32N 24°25' E 118°17'7 7.1
2016-Jun-22 07:33N 24°31' E 118°13'1 1.4
2016-Jun-22 06:33N 24°30' E 118°14'6 6.0
2016-Jun-22 05:32N 24°25' E 118°17'0 0.0
2016-Jun-22 04:33N 24°25' E 118°17'0 0.0
2016-Jun-22 03:33N 24°25' E 118°17'2 2.1
2016-Jun-22 02:33N 24°27' E 118°17'6 5.6
2016-Jun-22 01:33N 24°31' E 118°13'7 7.4
2016-Jun-22 00:33N 24°25' E 118°17'0 0.0
2016-Jun-21 23:33N 24°25' E 118°17'0 0.0
2016-Jun-21 22:33N 24°25' E 118°17'0 0.0
2016-Jun-21 21:33N 24°25' E 118°17'0 0.0
2016-Jun-21 20:34N 24°25' E 118°17'0 0.0
2016-Jun-21 19:34N 24°25' E 118°17'0 0.0
2016-Jun-21 18:33N 24°25' E 118°17'0 0.0
2016-Jun-21 17:33N 24°25' E 118°17'0 0.0
2016-Jun-21 16:33N 24°25' E 118°17'0 0.0
2016-Jun-21 15:32N 24°25' E 118°17'0 0.0
2016-Jun-21 10:32N 24°25' E 118°17'9 9.2
2016-Jun-21 09:34N 24°32' E 118°11'8 7.9
2016-Jun-21 08:33N 24°26' E 118°17'1 1.2
2016-Jun-21 07:33N 24°25' E 118°17'8 3.9
2016-Jun-21 05:33N 24°32' E 118°13'8 7.4
2016-Jun-21 04:29N 24°25' E 118°17'0 0.5
2016-Jun-21 03:33N 24°25' E 118°17'0 0.0
2016-Jun-21 02:32N 24°25' E 118°17'0 0.0
2016-Jun-21 01:33N 24°25' E 118°17'0 0.0
2016-Jun-20 21:33N 24°25' E 118°17'0 0.0
2016-Jun-20 20:33N 24°25' E 118°17'0 0.0
2016-Jun-20 19:33N 24°25' E 118°17'0 0.0
2016-Jun-20 18:33N 24°25' E 118°17'0 0.0
2016-Jun-20 17:33N 24°25' E 118°17'0 0.0
2016-Jun-20 16:33N 24°25' E 118°17'0 0.0
2016-Jun-20 15:32N 24°25' E 118°17'0 0.0
2016-Jun-20 06:26N 24°25' E 118°17'7 7.7
2016-Jun-20 05:33N 24°31' E 118°13'2 2.1
2016-Jun-20 04:33N 24°32' E 118°11'9 8.8
2016-Jun-20 03:33N 24°25' E 118°17'0 0.0
2016-Jun-20 02:33N 24°25' E 118°17'1 0.6
2016-Jun-20 01:33N 24°26' E 118°17'8 8.5
2016-Jun-20 00:33N 24°32' E 118°11'9 9.0
2016-Jun-19 23:33N 24°25' E 118°17'0 0.0
2016-Jun-19 22:33N 24°25' E 118°17'0 0.0
2016-Jun-19 21:32N 24°25' E 118°17'0 0.0
2016-Jun-19 20:32N 24°25' E 118°17'0 0.0
2016-Jun-19 19:33N 24°25' E 118°17'0 0.0
2016-Jun-19 18:33N 24°25' E 118°17'0 0.0
2016-Jun-19 17:33N 24°25' E 118°17'0 0.0
2016-Jun-19 16:34N 24°25' E 118°17'0 0.0
2016-Jun-19 15:31N 24°25' E 118°17'7 1.5
2016-Jun-19 10:33N 24°31' E 118°13'6 6.4
2016-Jun-19 09:33N 24°26' E 118°17'1 0.6
2016-Jun-19 08:33N 24°25' E 118°17'0 0.0
2016-Jun-19 04:18N 24°25' E 118°17'7 9.9
2016-Jun-19 03:33N 24°32' E 118°13'0 0.3
2016-Jun-19 02:33N 24°32' E 118°13'8 7.9
2016-Jun-19 01:33N 24°25' E 118°17'0 0.1
2016-Jun-19 00:34N 24°25' E 118°17'0 0.0
2016-Jun-18 23:33N 24°25' E 118°17'0 0.0
2016-Jun-18 22:32N 24°25' E 118°17'0 0.0
2016-Jun-18 21:33N 24°25' E 118°17'0 0.0
2016-Jun-18 20:33N 24°25' E 118°17'0 0.0
2016-Jun-18 19:33N 24°25' E 118°17'0 0.0
2016-Jun-18 18:33N 24°25' E 118°17'0 0.0
2016-Jun-18 17:34N 24°25' E 118°17'0 0.0
2016-Jun-18 16:33N 24°25' E 118°17'0 0.0
2016-Jun-18 15:33N 24°25' E 118°17'0 0.0
2016-Jun-18 09:33N 24°25' E 118°17'9 9.0
2016-Jun-18 08:33N 24°32' E 118°11'9 8.7
2016-Jun-18 07:31N 24°25' E 118°17'0 0.4
2016-Jun-18 06:31N 24°25' E 118°17'0 0.0
2016-Jun-18 05:33N 24°25' E 118°17'0 0.0
2016-Jun-18 04:33N 24°25' E 118°17'0 0.0
2016-Jun-18 03:33N 24°25' E 118°17'2 1.6
2016-Jun-18 02:33N 24°27' E 118°17'6 6.4
2016-Jun-18 01:33N 24°32' E 118°12'8 8.1
2016-Jun-18 00:33N 24°25' E 118°17'0 0.0
2016-Jun-17 23:33N 24°25' E 118°17'0 0.0
2016-Jun-17 22:33N 24°25' E 118°17'0 0.0
2016-Jun-17 21:33N 24°25' E 118°17'0 0.0
2016-Jun-17 20:31N 24°25' E 118°17'0 0.0
2016-Jun-17 19:33N 24°25' E 118°17'0 0.0
2016-Jun-17 18:33N 24°25' E 118°17'0 0.0
2016-Jun-17 17:33N 24°25' E 118°17'0 0.0
2016-Jun-17 16:33N 24°25' E 118°17'0 0.0
2016-Jun-17 15:33N 24°25' E 118°17'0 0.1
2016-Jun-17 10:33N 24°25' E 118°17'9 8.4
2016-Jun-17 09:32N 24°32' E 118°11'9 9.1
2016-Jun-17 08:33N 24°25' E 118°17'0 0.1
2016-Jun-17 07:33N 24°25' E 118°17'0 0.3
2016-Jun-17 06:29N 24°25' E 118°17'8 9.0
2016-Jun-17 05:33N 24°32' E 118°12'1 1.1
2016-Jun-17 04:33N 24°32' E 118°13'8 7.2
2016-Jun-17 03:29N 24°25' E 118°17'0 0.0
2016-Jun-17 02:34N 24°25' E 118°17'0 0.0
2016-Jun-16 22:12N 24°25' E 118°17'0 0.0
2016-Jun-16 16:11N 24°25' E 118°17'0 0.0
2016-Jun-16 15:31N 24°25' E 118°17'0 0.0
2016-Jun-16 10:22N 24°25' E 118°17'3 4.2
2016-Jun-16 09:33N 24°28' E 118°16'6 6.0
2016-Jun-16 08:33N 24°32' E 118°11'9 8.9
2016-Jun-16 07:32N 24°25' E 118°17'0 0.0
2016-Jun-16 06:33N 24°25' E 118°17'0 0.1
2016-Jun-16 05:33N 24°25' E 118°17'0 0.0
2016-Jun-16 04:32N 24°25' E 118°17'8 7.9
2016-Jun-16 03:33N 24°32' E 118°13'0 0.1
2016-Jun-16 02:33N 24°32' E 118°13'8 7.9
2016-Jun-16 01:33N 24°25' E 118°17'0 0.1
2016-Jun-16 00:31N 24°25' E 118°17'0 0.0
2016-Jun-15 23:33N 24°25' E 118°17'0 0.0
2016-Jun-15 22:33N 24°25' E 118°17'0 0.0
2016-Jun-15 21:33N 24°25' E 118°17'0 0.0
2016-Jun-15 20:33N 24°25' E 118°17'0 0.0
2016-Jun-15 19:33N 24°25' E 118°17'0 0.0
2016-Jun-15 18:33N 24°25' E 118°17'0 0.0
2016-Jun-15 17:33N 24°25' E 118°17'0 0.0
2016-Jun-15 16:33N 24°25' E 118°17'0 0.0
2016-Jun-15 15:33N 24°25' E 118°17'0 0.0
2016-Jun-15 10:32N 24°25' E 118°17'0 0.0
2016-Jun-15 09:32N 24°25' E 118°17'  
Track history (hours):
 
Tides and Currents Weather Stations Pressure Air Temp Water Temp Dewpoint Dewpoint Depression Visibility Wind Speed Wind Dir Waves Ship Positions

Marco Polo

Last reported at 2016-Jun-25 09:31 UTC. Time now 2016-Jun-25 12:31 UTC.
Position N 24°26' E 118°17'.

Length 32 m.

MMSI: 416000256.

Date/timePositionNaut miles runAvg speedWind from/ knotsBaromVisibWave heightAir tempDewpointWater temp
2016-Jun-25 09:31N 24°26' E 118°17'8 8.2
2016-Jun-25 08:29N 24°32' E 118°11'9 9.6
2016-Jun-25 07:33N 24°25' E 118°17'0 0.0
2016-Jun-25 06:30N 24°25' E 118°17'0 0.1
2016-Jun-25 05:33N 24°25' E 118°17'0 0.0
2016-Jun-25 04:30N 24°25' E 118°17'8 8.7
2016-Jun-25 03:33N 24°32' E 118°12'1 0.6
2016-Jun-25 02:33N 24°32' E 118°13'8 7.8
2016-Jun-25 01:33N 24°25' E 118°17'0 0.1
2016-Jun-25 00:31N 24°25' E 118°17'0 0.0
2016-Jun-24 23:33N 24°25' E 118°17'0 0.0
2016-Jun-24 22:33N 24°25' E 118°17'0 0.0
2016-Jun-24 21:33N 24°25' E 118°17'0 0.0
2016-Jun-24 20:34N 24°25' E 118°17'0 0.0
2016-Jun-24 19:33N 24°25' E 118°17'0 0.0
2016-Jun-24 18:33N 24°25' E 118°17'0 0.0
2016-Jun-24 17:32N 24°25' E 118°17'0 0.0
2016-Jun-24 16:33N 24°25' E 118°17'0 0.0
2016-Jun-24 15:33N 24°25' E 118°17'0 0.0
2016-Jun-24 10:30N 24°25' E 118°17'0 0.0
2016-Jun-24 09:33N 24°25' E 118°17'0 0.0
2016-Jun-24 08:33N 24°25' E 118°17'0 0.0
2016-Jun-24 07:33N 24°25' E 118°17'0 0.0
2016-Jun-24 04:33N 24°25' E 118°17'0 0.1
2016-Jun-24 03:32N 24°25' E 118°17'0 0.0
2016-Jun-24 02:33N 24°25' E 118°17'2 2.1
2016-Jun-24 01:33N 24°27' E 118°17'6 6.0
2016-Jun-24 00:33N 24°32' E 118°13'8 7.7
2016-Jun-23 23:33N 24°25' E 118°17'0 0.0
2016-Jun-23 22:33N 24°25' E 118°17'0 0.0
2016-Jun-23 21:32N 24°25' E 118°17'0 0.0
2016-Jun-23 20:33N 24°25' E 118°17'0 0.0
2016-Jun-23 19:31N 24°25' E 118°17'0 0.0
2016-Jun-23 18:33N 24°25' E 118°17'0 0.0
2016-Jun-23 17:33N 24°25' E 118°17'0 0.0
2016-Jun-23 16:33N 24°25' E 118°17'0 0.0
2016-Jun-23 15:33N 24°25' E 118°17'9 1.8
2016-Jun-23 10:33N 24°32' E 118°11'9 9.0
2016-Jun-23 09:33N 24°25' E 118°17'0 0.0
2016-Jun-23 08:34N 24°25' E 118°17'7 7.2
2016-Jun-23 07:33N 24°31' E 118°13'7 3.6
2016-Jun-23 05:33N 24°25' E 118°17'0 0.5
2016-Jun-23 04:32N 24°25' E 118°17'0 0.0
2016-Jun-23 03:15N 24°25' E 118°17'0 0.0
2016-Jun-23 02:27N 24°25' E 118°17'0 0.0
2016-Jun-23 01:32N 24°25' E 118°17'0 0.0
2016-Jun-22 23:20N 24°25' E 118°17'0 0.0
2016-Jun-22 22:33N 24°25' E 118°17'0 0.0
2016-Jun-22 21:28N 24°25' E 118°17'0 0.0
2016-Jun-22 20:33N 24°25' E 118°17'0 0.0
2016-Jun-22 19:33N 24°25' E 118°17'0 0.0
2016-Jun-22 18:32N 24°25' E 118°17'0 0.0
2016-Jun-22 17:33N 24°25' E 118°17'0 0.0
2016-Jun-22 16:33N 24°25' E 118°17'0 0.0
2016-Jun-22 15:33N 24°25' E 118°17'0 0.0
2016-Jun-22 08:32N 24°25' E 118°17'7 7.1
2016-Jun-22 07:33N 24°31' E 118°13'1 1.4
2016-Jun-22 06:33N 24°30' E 118°14'6 6.0
2016-Jun-22 05:32N 24°25' E 118°17'0 0.0
2016-Jun-22 04:33N 24°25' E 118°17'0 0.0
2016-Jun-22 03:33N 24°25' E 118°17'2 2.1
2016-Jun-22 02:33N 24°27' E 118°17'6 5.6
2016-Jun-22 01:33N 24°31' E 118°13'7 7.4
2016-Jun-22 00:33N 24°25' E 118°17'0 0.0
2016-Jun-21 23:33N 24°25' E 118°17'0 0.0
2016-Jun-21 22:33N 24°25' E 118°17'0 0.0
2016-Jun-21 21:33N 24°25' E 118°17'0 0.0
2016-Jun-21 20:34N 24°25' E 118°17'0 0.0
2016-Jun-21 19:34N 24°25' E 118°17'0 0.0
2016-Jun-21 18:33N 24°25' E 118°17'0 0.0
2016-Jun-21 17:33N 24°25' E 118°17'0 0.0
2016-Jun-21 16:33N 24°25' E 118°17'0 0.0
2016-Jun-21 15:32N 24°25' E 118°17'0 0.0
2016-Jun-21 10:32N 24°25' E 118°17'9 9.2
2016-Jun-21 09:34N 24°32' E 118°11'8 7.9
2016-Jun-21 08:33N 24°26' E 118°17'1 1.2
2016-Jun-21 07:33N 24°25' E 118°17'8 3.9
2016-Jun-21 05:33N 24°32' E 118°13'8 7.4
2016-Jun-21 04:29N 24°25' E 118°17'0 0.5
2016-Jun-21 03:33N 24°25' E 118°17'0 0.0
2016-Jun-21 02:32N 24°25' E 118°17'0 0.0
2016-Jun-21 01:33N 24°25' E 118°17'0 0.0
2016-Jun-20 21:33N 24°25' E 118°17'0 0.0
2016-Jun-20 20:33N 24°25' E 118°17'0 0.0
2016-Jun-20 19:33N 24°25' E 118°17'0 0.0
2016-Jun-20 18:33N 24°25' E 118°17'0 0.0
2016-Jun-20 17:33N 24°25' E 118°17'0 0.0
2016-Jun-20 16:33N 24°25' E 118°17'0 0.0
2016-Jun-20 15:32N 24°25' E 118°17'0 0.0
2016-Jun-20 06:26N 24°25' E 118°17'7 7.7
2016-Jun-20 05:33N 24°31' E 118°13'2 2.1
2016-Jun-20 04:33N 24°32' E 118°11'9 8.8
2016-Jun-20 03:33N 24°25' E 118°17'0 0.0
2016-Jun-20 02:33N 24°25' E 118°17'1 0.6
2016-Jun-20 01:33N 24°26' E 118°17'8 8.5
2016-Jun-20 00:33N 24°32' E 118°11'9 9.0
2016-Jun-19 23:33N 24°25' E 118°17'0 0.0
2016-Jun-19 22:33N 24°25' E 118°17'0 0.0
2016-Jun-19 21:32N 24°25' E 118°17'0 0.0
2016-Jun-19 20:32N 24°25' E 118°17'0 0.0
2016-Jun-19 19:33N 24°25' E 118°17'0 0.0
2016-Jun-19 18:33N 24°25' E 118°17'0 0.0
2016-Jun-19 17:33N 24°25' E 118°17'0 0.0
2016-Jun-19 16:34N 24°25' E 118°17'0 0.0
2016-Jun-19 15:31N 24°25' E 118°17'7 1.5
2016-Jun-19 10:33N 24°31' E 118°13'6 6.4
2016-Jun-19 09:33N 24°26' E 118°17'1 0.6
2016-Jun-19 08:33N 24°25' E 118°17'0 0.0
2016-Jun-19 04:18N 24°25' E 118°17'7 9.9
2016-Jun-19 03:33N 24°32' E 118°13'0 0.3
2016-Jun-19 02:33N 24°32' E 118°13'8 7.9
2016-Jun-19 01:33N 24°25' E 118°17'0 0.1
2016-Jun-19 00:34N 24°25' E 118°17'0 0.0
2016-Jun-18 23:33N 24°25' E 118°17'0 0.0
2016-Jun-18 22:32N 24°25' E 118°17'0 0.0
2016-Jun-18 21:33N 24°25' E 118°17'0 0.0
2016-Jun-18 20:33N 24°25' E 118°17'0 0.0
2016-Jun-18 19:33N 24°25' E 118°17'0 0.0
2016-Jun-18 18:33N 24°25' E 118°17'0 0.0
2016-Jun-18 17:34N 24°25' E 118°17'0 0.0
2016-Jun-18 16:33N 24°25' E 118°17'0 0.0
2016-Jun-18 15:33N 24°25' E 118°17'0 0.0
2016-Jun-18 09:33N 24°25' E 118°17'9 9.0
2016-Jun-18 08:33N 24°32' E 118°11'9 8.7
2016-Jun-18 07:31N 24°25' E 118°17'0 0.4
2016-Jun-18 06:31N 24°25' E 118°17'0 0.0
2016-Jun-18 05:33N 24°25' E 118°17'0 0.0
2016-Jun-18 04:33N 24°25' E 118°17'0 0.0
2016-Jun-18 03:33N 24°25' E 118°17'2 1.6
2016-Jun-18 02:33N 24°27' E 118°17'6 6.4
2016-Jun-18 01:33N 24°32' E 118°12'8 8.1
2016-Jun-18 00:33N 24°25' E 118°17'0 0.0
2016-Jun-17 23:33N 24°25' E 118°17'0 0.0
2016-Jun-17 22:33N 24°25' E 118°17'0 0.0
2016-Jun-17 21:33N 24°25' E 118°17'0 0.0
2016-Jun-17 20:31N 24°25' E 118°17'0 0.0
2016-Jun-17 19:33N 24°25' E 118°17'0 0.0
2016-Jun-17 18:33N 24°25' E 118°17'0 0.0
2016-Jun-17 17:33N 24°25' E 118°17'0 0.0
2016-Jun-17 16:33N 24°25' E 118°17'0 0.0
2016-Jun-17 15:33N 24°25' E 118°17'0 0.1
2016-Jun-17 10:33N 24°25' E 118°17'9 8.4
2016-Jun-17 09:32N 24°32' E 118°11'9 9.1
2016-Jun-17 08:33N 24°25' E 118°17'0 0.1
2016-Jun-17 07:33N 24°25' E 118°17'0 0.3
2016-Jun-17 06:29N 24°25' E 118°17'8 9.0
2016-Jun-17 05:33N 24°32' E 118°12'1 1.1
2016-Jun-17 04:33N 24°32' E 118°13'8 7.2
2016-Jun-17 03:29N 24°25' E 118°17'0 0.0
2016-Jun-17 02:34N 24°25' E 118°17'0 0.0
2016-Jun-16 22:12N 24°25' E 118°17'0 0.0
2016-Jun-16 16:11N 24°25' E 118°17'0 0.0
2016-Jun-16 15:31N 24°25' E 118°17'0 0.0
2016-Jun-16 10:22N 24°25' E 118°17'3 4.2
2016-Jun-16 09:33N 24°28' E 118°16'6 6.0
2016-Jun-16 08:33N 24°32' E 118°11'9 8.9
2016-Jun-16 07:32N 24°25' E 118°17'0 0.0
2016-Jun-16 06:33N 24°25' E 118°17'0 0.1
2016-Jun-16 05:33N 24°25' E 118°17'0 0.0
2016-Jun-16 04:32N 24°25' E 118°17'8 7.9
2016-Jun-16 03:33N 24°32' E 118°13'0 0.1
2016-Jun-16 02:33N 24°32' E 118°13'8 7.9
2016-Jun-16 01:33N 24°25' E 118°17'0 0.1
2016-Jun-16 00:31N 24°25' E 118°17'0 0.0
2016-Jun-15 23:33N 24°25' E 118°17'0 0.0
2016-Jun-15 22:33N 24°25' E 118°17'0 0.0
2016-Jun-15 21:33N 24°25' E 118°17'0 0.0
2016-Jun-15 20:33N 24°25' E 118°17'0 0.0
2016-Jun-15 19:33N 24°25' E 118°17'0 0.0
2016-Jun-15 18:33N 24°25' E 118°17'0 0.0
2016-Jun-15 17:33N 24°25' E 118°17'0 0.0
2016-Jun-15 16:33N 24°25' E 118°17'0 0.0
2016-Jun-15 15:33N 24°25' E 118°17'0 0.0
2016-Jun-15 10:32N 24°25' E 118°17'0 0.0
2016-Jun-15 09:32N 24°25' E 118°17'  

Dump ship's entire track history